createdAt,value
2019-05-30T00:00:17.480Z,101797.38
2019-05-30T00:02:45.229Z,101799.86
2019-05-30T00:05:14.506Z,101795.56
2019-05-30T00:07:43.738Z,101799.03
2019-05-30T00:10:13.043Z,101796.02
2019-05-30T00:12:42.146Z,101800.27
2019-05-30T00:15:11.322Z,101794.36
2019-05-30T00:17:40.522Z,101786.63
2019-05-30T00:20:09.933Z,101790.24
2019-05-30T00:22:39.125Z,101795.93
2019-05-30T00:25:08.311Z,101792.83
2019-05-30T00:27:37.488Z,101789.70
2019-05-30T00:30:23.277Z,101800.16
2019-05-30T00:32:38.020Z,101788.66
2019-05-30T00:35:07.306Z,101788.66
2019-05-30T00:37:36.586Z,101790.80
2019-05-30T00:40:06.417Z,101784.53
2019-05-30T00:42:35.645Z,101790.95
2019-05-30T00:45:19.642Z,101790.95
2019-05-30T00:47:36.319Z,101783.50
2019-05-30T00:50:06.674Z,101786.91
2019-05-30T00:52:36.007Z,101786.38
2019-05-30T00:55:06.861Z,101784.44
2019-05-30T00:57:36.249Z,101784.44
2019-05-30T01:00:07.176Z,101782.04
2019-05-30T01:02:36.460Z,101775.14
2019-05-30T01:05:07.642Z,101752.34
2019-05-30T01:07:36.909Z,101773.69
2019-05-30T01:10:07.458Z,101774.34
2019-05-30T01:12:36.881Z,101772.23
2019-05-30T01:15:07.488Z,101765.14
2019-05-30T01:17:36.741Z,101758.91
2019-05-30T01:20:07.479Z,101756.67
2019-05-30T01:22:36.791Z,101759.16
2019-05-30T01:25:07.812Z,101752.09
2019-05-30T01:27:37.747Z,101753.28
2019-05-30T01:30:07.936Z,101756.97
2019-05-30T01:32:37.222Z,101748.80
2019-05-30T01:35:08.112Z,101753.21
2019-05-30T01:37:37.550Z,101743.55
2019-05-30T01:40:08.756Z,101752.37
2019-05-30T01:42:37.974Z,101752.37
2019-05-30T01:45:08.469Z,101750.89
2019-05-30T01:47:37.881Z,101747.33
2019-05-30T01:50:08.592Z,101741.42
2019-05-30T01:52:38.064Z,101748.39
2019-05-30T01:55:08.980Z,101744.55
2019-05-30T01:57:38.888Z,101749.07
2019-05-30T02:00:19.876Z,101748.96
2019-05-30T02:02:40.054Z,101741.72
2019-05-30T02:05:10.561Z,101741.34
2019-05-30T02:07:39.835Z,101745.03
2019-05-30T02:10:10.093Z,101745.03
2019-05-30T02:12:39.445Z,101742.34
2019-05-30T02:15:09.978Z,101739.41
2019-05-30T02:17:39.509Z,101743.00
2019-05-30T02:20:10.232Z,101743.07
2019-05-30T02:22:39.677Z,101743.07
2019-05-30T02:25:10.228Z,101747.73
2019-05-30T02:27:39.561Z,101747.73
2019-05-30T02:30:14.157Z,101740.28
2019-05-30T02:32:40.805Z,101745.95
2019-05-30T02:35:12.748Z,101745.55
2019-05-30T02:37:41.857Z,101742.64
2019-05-30T02:40:15.000Z,101739.73
2019-05-30T02:42:41.984Z,101734.13
2019-05-30T02:45:12.583Z,101744.57
2019-05-30T02:47:41.993Z,101744.73
2019-05-30T02:50:13.993Z,101744.70
2019-05-30T02:52:42.503Z,101747.96
2019-05-30T02:55:13.508Z,101742.85
2019-05-30T02:57:43.111Z,101739.64
2019-05-30T03:00:16.572Z,101742.18
2019-05-30T03:02:43.459Z,101744.75
2019-05-30T03:05:15.001Z,101744.75
2019-05-30T03:07:43.621Z,101749.08
2019-05-30T03:10:15.234Z,101745.00
2019-05-30T03:12:43.849Z,101740.17
2019-05-30T03:15:15.528Z,101738.27
2019-05-30T03:17:44.273Z,101738.27
2019-05-30T03:20:21.881Z,101743.48
2019-05-30T03:22:44.333Z,101743.48
2019-05-30T03:25:16.196Z,101731.38
2019-05-30T03:27:44.965Z,101730.62
2019-05-30T03:30:25.715Z,101736.50
2019-05-30T03:33:05.698Z,101735.41
2019-05-30T03:35:26.845Z,101741.89
2019-05-30T03:37:47.412Z,101746.42
2019-05-30T03:40:18.500Z,101746.67
2019-05-30T03:42:47.707Z,101746.92
2019-05-30T03:45:17.516Z,101756.41
2019-05-30T03:47:50.923Z,101762.28
2019-05-30T03:50:22.537Z,101747.86
2019-05-30T03:52:52.174Z,101755.60
2019-05-30T03:55:22.273Z,101759.36
2019-05-30T03:57:57.404Z,101759.13
2019-05-30T04:00:40.895Z,101751.91
2019-05-30T04:03:21.148Z,101759.42
2019-05-30T04:05:54.146Z,101762.44
2019-05-30T04:08:25.009Z,101757.84
2019-05-30T04:10:57.217Z,101761.45
2019-05-30T04:13:41.400Z,101756.59
2019-05-30T04:16:11.059Z,101756.59
2019-05-30T04:18:40.342Z,101766.29
2019-05-30T04:21:11.493Z,101762.47
2019-05-30T04:23:40.317Z,101761.98
2019-05-30T04:26:09.745Z,101761.38
2019-05-30T04:28:40.423Z,101773.68
2019-05-30T04:31:09.990Z,101773.68
2019-05-30T04:33:39.269Z,101776.31
2019-05-30T04:36:08.614Z,101778.81
2019-05-30T04:38:37.978Z,101775.86
2019-05-30T04:41:08.757Z,101774.80
2019-05-30T04:43:37.966Z,101774.80
2019-05-30T04:46:07.156Z,101774.80
2019-05-30T04:48:36.355Z,101777.15
2019-05-30T04:51:05.558Z,101774.78
2019-05-30T04:53:34.600Z,101769.45
2019-05-30T04:56:03.825Z,101769.45
2019-05-30T04:58:33.031Z,101779.53
2019-05-30T05:01:02.133Z,101775.29
2019-05-30T05:03:45.161Z,101787.94
2019-05-30T05:06:02.199Z,101789.36
2019-05-30T05:08:31.326Z,101791.80
2019-05-30T05:11:00.519Z,101786.43
2019-05-30T05:13:29.627Z,101786.43
2019-05-30T05:15:58.855Z,101787.88
2019-05-30T05:18:27.965Z,101788.77
2019-05-30T05:20:57.150Z,101794.50
2019-05-30T05:23:26.292Z,101794.75
2019-05-30T05:26:00.764Z,101784.16
2019-05-30T05:28:26.163Z,101788.81
2019-05-30T05:30:55.370Z,101784.80
2019-05-30T05:33:24.747Z,101783.67
2019-05-30T05:35:54.045Z,101789.94
2019-05-30T05:38:24.438Z,101799.45
2019-05-30T05:40:53.565Z,101803.30
2019-05-30T05:43:24.373Z,101801.75
2019-05-30T05:45:53.742Z,101797.30
2019-05-30T05:48:22.864Z,101802.34
2019-05-30T05:50:52.098Z,101800.45
2019-05-30T05:53:21.206Z,101798.23
2019-05-30T05:55:50.387Z,101796.27
2019-05-30T05:58:20.786Z,101805.52
2019-05-30T06:00:50.099Z,101810.75
2019-05-30T06:03:20.394Z,101810.75
2019-05-30T06:05:53.326Z,101806.16
2019-05-30T06:08:21.454Z,101822.02
2019-05-30T06:10:50.777Z,101820.15
2019-05-30T06:13:20.758Z,101826.41
2019-05-30T06:15:49.975Z,101827.52
2019-05-30T06:18:20.179Z,101825.52
2019-05-30T06:20:49.464Z,101825.52
2019-05-30T06:23:19.495Z,101829.77
2019-05-30T06:25:48.863Z,101830.70
2019-05-30T06:28:18.089Z,101820.38
2019-05-30T06:30:47.255Z,101838.38
2019-05-30T06:33:16.566Z,101837.96
2019-05-30T06:35:45.755Z,101833.89
2019-05-30T06:38:14.940Z,101839.16
2019-05-30T06:40:44.148Z,101839.11
2019-05-30T06:43:13.272Z,101836.20
2019-05-30T06:45:42.358Z,101840.80
2019-05-30T06:48:11.565Z,101840.80
2019-05-30T06:50:40.758Z,101841.23
2019-05-30T06:53:10.012Z,101839.86
2019-05-30T06:55:39.159Z,101840.23
2019-05-30T06:58:08.303Z,101839.25
2019-05-30T07:00:37.493Z,101839.11
2019-05-30T07:03:06.770Z,101845.19
2019-05-30T07:05:36.717Z,101850.81
2019-05-30T07:08:06.205Z,101850.81
2019-05-30T07:10:35.379Z,101851.52
2019-05-30T07:13:04.678Z,101857.23
2019-05-30T07:15:34.422Z,101857.23
2019-05-30T07:18:03.674Z,101861.63
2019-05-30T07:20:33.827Z,101867.05
2019-05-30T07:23:03.054Z,101867.05
2019-05-30T07:25:32.253Z,101871.06
2019-05-30T07:28:01.324Z,101866.00
2019-05-30T07:30:30.516Z,101861.11
2019-05-30T07:32:59.630Z,101860.75
2019-05-30T07:35:29.976Z,101859.66
2019-05-30T07:37:59.081Z,101865.80
2019-05-30T07:40:28.616Z,101870.14
2019-05-30T07:42:57.930Z,101874.13
2019-05-30T07:45:27.218Z,101884.67
2019-05-30T07:47:56.363Z,101879.08
2019-05-30T07:50:26.318Z,101879.08
2019-05-30T07:52:55.603Z,101889.42
2019-05-30T07:55:24.832Z,101889.10
2019-05-30T07:57:54.045Z,101894.16
2019-05-30T08:00:23.442Z,101894.47
2019-05-30T08:02:52.649Z,101887.53
2019-05-30T08:05:24.670Z,101890.27
2019-05-30T08:07:52.750Z,101890.27
2019-05-30T08:10:22.354Z,101893.31
2019-05-30T08:12:51.559Z,101898.42
2019-05-30T08:15:20.740Z,101898.42
2019-05-30T08:17:49.950Z,101887.30
2019-05-30T08:20:19.540Z,101884.37
2019-05-30T08:22:48.694Z,101885.48
2019-05-30T08:25:17.911Z,101892.33
2019-05-30T08:27:47.015Z,101896.19
2019-05-30T08:30:17.947Z,101900.95
2019-05-30T08:32:47.074Z,101899.38
2019-05-30T08:35:16.367Z,101899.38
2019-05-30T08:37:45.560Z,101895.71
2019-05-30T08:40:14.973Z,101895.42
2019-05-30T08:42:44.044Z,101906.62
2019-05-30T08:45:13.649Z,101914.81
2019-05-30T08:47:42.845Z,101918.03
2019-05-30T08:50:12.562Z,101916.00
2019-05-30T08:52:41.745Z,101916.00
2019-05-30T08:55:11.336Z,101930.41
2019-05-30T08:57:41.127Z,101926.13
2019-05-30T09:00:11.528Z,101926.94
2019-05-30T09:02:41.036Z,101926.94
2019-05-30T09:05:10.819Z,101925.33
2019-05-30T09:07:40.365Z,101925.39
2019-05-30T09:10:10.612Z,101924.67
2019-05-30T09:12:40.872Z,101919.61
2019-05-30T09:15:11.133Z,101909.62
2019-05-30T09:17:42.088Z,101916.98
2019-05-30T09:20:12.565Z,101914.77
2019-05-30T09:22:41.991Z,101910.83
2019-05-30T09:25:12.067Z,101912.41
2019-05-30T09:27:42.635Z,101914.94
2019-05-30T09:30:13.225Z,101909.08
2019-05-30T09:32:43.187Z,101911.00
2019-05-30T09:35:13.489Z,101911.00
2019-05-30T09:37:43.977Z,101919.94
2019-05-30T09:40:15.370Z,101916.31
2019-05-30T09:42:45.182Z,101921.94
2019-05-30T09:45:18.215Z,101921.94
2019-05-30T09:47:49.206Z,101921.94
2019-05-30T09:50:18.749Z,101936.16
2019-05-30T09:52:49.205Z,101940.14
2019-05-30T09:55:18.954Z,101945.73
2019-05-30T09:57:48.112Z,101952.98
2019-05-30T10:00:18.507Z,101947.41
2019-05-30T10:02:48.611Z,101955.59
2019-05-30T10:05:18.905Z,101952.30
2019-05-30T10:07:49.259Z,101961.59
2019-05-30T10:10:20.461Z,101963.70
2019-05-30T10:12:50.310Z,101963.89
2019-05-30T10:15:20.286Z,101959.31
2019-05-30T10:17:52.094Z,101966.77
2019-05-30T10:20:20.555Z,101961.61
2019-05-30T10:22:50.817Z,101961.61
2019-05-30T10:25:20.779Z,101960.95
2019-05-30T10:27:51.010Z,101966.31
2019-05-30T10:30:21.663Z,101966.67
2019-05-30T10:32:52.035Z,101964.20
2019-05-30T10:35:21.654Z,101963.55
2019-05-30T10:37:51.026Z,101954.25
2019-05-30T10:40:20.522Z,101954.25
2019-05-30T10:42:51.303Z,101953.87
2019-05-30T10:45:21.049Z,101957.17
2019-05-30T10:47:51.376Z,101955.61
2019-05-30T10:50:20.789Z,101968.42
2019-05-30T10:52:50.002Z,101974.97
2019-05-30T10:55:20.306Z,101977.99
2019-05-30T10:57:50.039Z,101973.75
2019-05-30T11:00:20.176Z,101982.63
2019-05-30T11:02:50.851Z,101984.27
2019-05-30T11:05:20.465Z,101984.27
2019-05-30T11:08:03.841Z,101993.92
2019-05-30T11:10:39.281Z,101991.44
2019-05-30T11:13:11.380Z,101989.30
2019-05-30T11:15:40.581Z,101989.30
2019-05-30T11:18:09.772Z,101990.62
2019-05-30T11:20:38.971Z,101985.21
2019-05-30T11:23:08.152Z,101999.87
2019-05-30T11:25:37.360Z,101993.52
2019-05-30T11:28:07.312Z,101993.52
2019-05-30T11:30:36.782Z,101999.64
2019-05-30T11:33:06.177Z,101999.64
2019-05-30T11:35:35.359Z,102007.13
2019-05-30T11:38:04.646Z,102008.00
2019-05-30T11:40:33.867Z,102008.88
2019-05-30T11:43:03.075Z,102002.39
2019-05-30T11:45:32.453Z,102002.39
2019-05-30T11:48:01.680Z,102009.44
2019-05-30T11:50:30.986Z,102009.44
2019-05-30T11:53:00.260Z,102012.55
2019-05-30T11:55:29.409Z,102015.36
2019-05-30T11:57:58.532Z,102016.51
2019-05-30T12:00:28.316Z,102016.51
2019-05-30T12:02:58.661Z,102015.30
2019-05-30T12:05:27.987Z,102015.30
2019-05-30T12:07:57.182Z,102021.70
2019-05-30T12:10:26.793Z,102022.14
2019-05-30T12:12:57.233Z,102025.25
2019-05-30T12:15:27.494Z,102022.75
2019-05-30T12:17:57.480Z,102015.38
2019-05-30T12:20:26.753Z,102028.02
2019-05-30T12:22:56.006Z,102022.12
2019-05-30T12:25:25.220Z,102016.89
2019-05-30T12:27:54.381Z,102020.89
2019-05-30T12:30:23.863Z,102020.09
2019-05-30T12:32:54.200Z,102015.70
2019-05-30T12:35:23.485Z,102007.50
2019-05-30T12:37:56.024Z,102006.37
2019-05-30T12:40:23.584Z,102003.85
2019-05-30T12:42:55.859Z,102005.03
2019-05-30T12:45:24.109Z,102007.44
2019-05-30T12:47:53.297Z,102008.80
2019-05-30T12:50:22.592Z,102004.44
2019-05-30T12:52:51.714Z,102001.91
2019-05-30T12:55:22.363Z,102003.80
2019-05-30T12:57:51.552Z,102010.07
2019-05-30T13:00:21.966Z,102010.07
2019-05-30T13:02:51.156Z,102012.13
2019-05-30T13:05:20.551Z,102015.11
2019-05-30T13:07:49.720Z,102016.77
2019-05-30T13:10:20.325Z,102013.36
2019-05-30T13:12:49.532Z,102013.36
2019-05-30T13:15:18.713Z,102015.58
2019-05-30T13:17:47.912Z,102007.93
2019-05-30T13:20:17.613Z,102012.53
2019-05-30T13:22:46.788Z,102020.55
2019-05-30T13:25:17.520Z,102012.65
2019-05-30T13:27:46.640Z,102021.50
2019-05-30T13:30:16.023Z,102021.50
2019-05-30T13:32:45.234Z,102012.94
2019-05-30T13:35:14.724Z,102007.05
2019-05-30T13:37:44.078Z,102016.07
2019-05-30T13:40:24.978Z,102015.87
2019-05-30T13:42:44.881Z,102015.87
2019-05-30T13:45:14.073Z,102011.03
2019-05-30T13:47:43.121Z,102008.20
2019-05-30T13:50:14.311Z,101999.93
2019-05-30T13:52:43.713Z,102001.47
2019-05-30T13:55:14.562Z,101999.34
2019-05-30T13:57:43.743Z,101989.67
2019-05-30T14:00:14.273Z,101997.22
2019-05-30T14:02:43.464Z,101990.88
2019-05-30T14:05:14.291Z,102001.53
2019-05-30T14:07:43.473Z,101996.07
2019-05-30T14:10:13.166Z,101990.38
2019-05-30T14:12:42.220Z,101997.78
2019-05-30T14:15:14.059Z,101997.62
2019-05-30T14:17:43.029Z,101993.38
2019-05-30T14:20:12.922Z,101988.61
2019-05-30T14:22:42.121Z,101999.55
2019-05-30T14:25:13.160Z,101993.01
2019-05-30T14:27:42.306Z,101990.98
2019-05-30T14:30:13.119Z,101989.64
2019-05-30T14:32:42.493Z,101989.15
2019-05-30T14:35:13.940Z,101988.00
2019-05-30T14:37:43.187Z,101985.22
2019-05-30T14:40:14.311Z,101995.13
2019-05-30T14:42:43.510Z,101985.77
2019-05-30T14:45:14.897Z,101986.39
2019-05-30T14:47:44.163Z,101995.86
2019-05-30T14:50:14.996Z,101989.14
2019-05-30T14:52:44.173Z,101984.78
2019-05-30T14:55:13.660Z,101984.78
2019-05-30T14:57:42.911Z,101990.16
2019-05-30T15:00:14.550Z,101988.52
2019-05-30T15:02:43.748Z,101991.80
2019-05-30T15:05:15.859Z,102001.19
2019-05-30T15:07:45.809Z,101998.91
2019-05-30T15:10:15.198Z,101990.96
2019-05-30T15:12:44.320Z,101998.20
2019-05-30T15:15:18.204Z,102003.88
2019-05-30T15:17:46.069Z,101989.06
2019-05-30T15:20:17.743Z,102003.49
2019-05-30T15:25:22.615Z,102001.05
2019-05-30T15:27:51.781Z,101996.70
2019-05-30T15:30:21.194Z,101983.19
2019-05-30T15:32:50.310Z,101986.17
2019-05-30T15:35:19.506Z,101992.92
2019-05-30T15:37:48.663Z,101995.30
2019-05-30T15:40:19.064Z,101992.24
2019-05-30T15:42:48.164Z,101986.86
2019-05-30T15:45:18.901Z,101998.88
2019-05-30T15:47:47.991Z,101998.88
2019-05-30T15:50:19.564Z,101995.55
2019-05-30T15:52:48.757Z,102000.64
2019-05-30T15:55:19.257Z,101992.31
2019-05-30T15:57:48.500Z,102003.36
2019-05-30T16:00:18.134Z,102010.12
2019-05-30T16:02:47.246Z,101985.09
2019-05-30T16:05:16.840Z,102011.88
2019-05-30T16:07:45.930Z,102017.88
2019-05-30T16:10:15.099Z,102014.53
2019-05-30T16:12:44.141Z,102003.16
2019-05-30T16:15:15.547Z,102004.56
2019-05-30T16:17:44.992Z,102019.44
2019-05-30T16:20:14.286Z,102013.36
2019-05-30T16:22:43.750Z,102027.10
2019-05-30T16:25:15.522Z,102025.34
2019-05-30T16:27:44.713Z,102018.10
2019-05-30T16:30:19.753Z,102023.86
2019-05-30T16:32:45.122Z,102015.78
2019-05-30T16:35:14.497Z,102028.22
2019-05-30T16:37:43.632Z,102028.22
2019-05-30T16:40:14.508Z,102020.84
2019-05-30T16:42:43.794Z,102020.84
2019-05-30T16:45:20.307Z,102019.87
2019-05-30T16:47:49.123Z,102022.77
2019-05-30T16:50:17.028Z,102023.80
2019-05-30T16:52:46.129Z,102023.86
2019-05-30T16:55:17.166Z,102024.53
2019-05-30T16:57:46.413Z,102024.53
2019-05-30T17:00:17.604Z,102029.13
2019-05-30T17:02:46.863Z,102029.13
2019-05-30T17:05:16.150Z,102031.83
2019-05-30T17:07:48.379Z,102025.20
2019-05-30T17:10:24.588Z,102013.55
2019-05-30T17:12:47.622Z,102027.98
2019-05-30T17:15:17.777Z,102029.59
2019-05-30T17:17:47.074Z,102033.49
2019-05-30T17:20:16.589Z,102026.32
2019-05-30T17:22:45.770Z,102021.98
2019-05-30T17:25:14.945Z,102026.36
2019-05-30T17:27:44.037Z,102038.22
2019-05-30T17:30:15.137Z,102031.67
2019-05-30T17:32:44.248Z,102041.10
2019-05-30T17:35:13.636Z,102030.95
2019-05-30T17:37:42.731Z,102043.45
2019-05-30T17:40:12.087Z,102036.63
2019-05-30T17:42:41.202Z,102035.80
2019-05-30T17:45:10.707Z,102039.45
2019-05-30T17:47:39.843Z,102035.06
2019-05-30T17:50:09.935Z,102036.17
2019-05-30T17:52:39.037Z,102034.80
2019-05-30T17:55:08.764Z,102032.89
2019-05-30T17:57:37.937Z,102038.98
2019-05-30T18:00:07.692Z,102028.53
2019-05-30T18:02:36.898Z,102031.73
2019-05-30T18:05:06.816Z,102038.46
2019-05-30T18:07:35.915Z,102038.34
2019-05-30T18:10:05.379Z,102041.62
2019-05-30T18:12:34.485Z,102046.67
2019-05-30T18:15:04.658Z,102046.67
2019-05-30T18:17:34.263Z,102041.92
2019-05-30T18:20:03.504Z,102038.77
2019-05-30T18:22:32.707Z,102038.77
2019-05-30T18:25:01.885Z,102036.62
2019-05-30T18:27:32.144Z,102038.96
2019-05-30T18:30:01.311Z,102039.77
2019-05-30T18:32:30.356Z,102039.77
2019-05-30T18:34:59.560Z,102036.92
2019-05-30T18:37:28.725Z,102036.92
2019-05-30T18:39:58.038Z,102031.87
2019-05-30T18:42:27.352Z,102038.89
2019-05-30T18:44:56.577Z,102038.34
2019-05-30T18:47:25.691Z,102040.15
2019-05-30T18:49:54.867Z,102048.05
2019-05-30T18:52:24.216Z,102048.05
2019-05-30T18:54:53.323Z,102057.03
2019-05-30T18:57:22.443Z,102049.97
2019-05-30T18:59:51.477Z,102051.27
2019-05-30T19:02:20.581Z,102052.77
2019-05-30T19:04:49.777Z,102052.77
2019-05-30T19:07:18.876Z,102057.03
2019-05-30T19:09:47.982Z,102045.58
2019-05-30T19:12:17.100Z,102048.55
2019-05-30T19:14:46.208Z,102054.56
2019-05-30T19:17:17.886Z,102057.77
2019-05-30T19:19:50.452Z,102056.98
2019-05-30T19:22:17.912Z,102036.28
2019-05-30T19:24:47.018Z,102059.52
2019-05-30T19:27:16.215Z,102055.29
2019-05-30T19:29:45.351Z,102052.84
2019-05-30T19:32:14.449Z,102058.09
2019-05-30T19:34:43.475Z,102060.86
2019-05-30T19:37:12.666Z,102064.84
2019-05-30T19:39:41.882Z,102070.17
2019-05-30T19:42:11.071Z,102068.56
2019-05-30T19:44:41.670Z,102073.30
2019-05-30T19:47:10.889Z,102074.33
2019-05-30T19:49:40.077Z,102088.52
2019-05-30T19:52:09.384Z,102084.37
2019-05-30T19:54:39.637Z,102086.81
2019-05-30T19:57:08.749Z,102086.63
2019-05-30T19:59:37.971Z,102086.63
2019-05-30T20:02:07.413Z,102089.98
2019-05-30T20:04:36.603Z,102094.06
2019-05-30T20:07:05.777Z,102099.46
2019-05-30T20:09:34.909Z,102102.81
2019-05-30T20:12:08.595Z,102102.86
2019-05-30T20:14:35.136Z,102102.47
2019-05-30T20:17:04.234Z,102109.71
2019-05-30T20:19:33.538Z,102111.01
2019-05-30T20:22:02.610Z,102110.23
2019-05-30T20:24:32.081Z,102106.23
2019-05-30T20:27:01.406Z,102111.61
2019-05-30T20:29:30.500Z,102110.75
2019-05-30T20:31:59.700Z,102106.15
2019-05-30T20:34:28.877Z,102109.73
2019-05-30T20:36:57.926Z,102118.20
2019-05-30T20:39:26.976Z,102114.94
2019-05-30T20:41:56.172Z,102116.12
2019-05-30T20:44:25.377Z,102120.47
2019-05-30T20:46:54.566Z,102117.19
2019-05-30T20:49:23.700Z,102117.76
2019-05-30T20:51:52.898Z,102120.47
2019-05-30T20:54:22.012Z,102122.71
2019-05-30T20:56:51.864Z,102122.57
2019-05-30T20:59:21.137Z,102118.02
2019-05-30T21:01:50.351Z,102118.02
2019-05-30T21:04:19.547Z,102121.33
2019-05-30T21:06:48.852Z,102123.60
2019-05-30T21:09:30.434Z,102124.34
2019-05-30T21:11:51.757Z,102126.17
2019-05-30T21:14:27.475Z,102121.17
2019-05-30T21:16:55.854Z,102123.20
2019-05-30T21:19:25.041Z,102123.20
2019-05-30T21:21:54.244Z,102137.78
2019-05-30T21:24:23.342Z,102137.78
2019-05-30T21:26:52.452Z,102130.39
2019-05-30T21:29:21.711Z,102130.39
2019-05-30T21:31:50.998Z,102134.94
2019-05-30T21:34:20.094Z,102136.69
2019-05-30T21:36:49.251Z,102140.00
2019-05-30T21:39:18.414Z,102140.04
2019-05-30T21:41:48.522Z,102146.58
2019-05-30T21:44:17.585Z,102144.98
2019-05-30T21:46:46.871Z,102142.17
2019-05-30T21:49:16.089Z,102140.52
2019-05-30T21:51:45.466Z,102140.23
2019-05-30T21:54:14.720Z,102140.23
2019-05-30T21:56:44.079Z,102139.44
2019-05-30T21:59:13.272Z,102142.39
2019-05-30T22:01:42.636Z,102143.41
2019-05-30T22:04:11.898Z,102137.02
2019-05-30T22:06:41.013Z,102138.11
2019-05-30T22:09:11.419Z,102144.42
2019-05-30T22:11:41.653Z,102140.11
2019-05-30T22:14:10.991Z,102144.92
2019-05-30T22:16:40.175Z,102148.55
2019-05-30T22:19:09.367Z,102148.55
2019-05-30T22:21:38.486Z,102138.97
2019-05-30T22:24:07.677Z,102142.39
2019-05-30T22:26:36.777Z,102140.30
2019-05-30T22:29:05.961Z,102140.16
2019-05-30T22:31:35.017Z,102140.88
2019-05-30T22:34:04.124Z,102144.76
2019-05-30T22:36:33.310Z,102146.55
2019-05-30T22:39:03.415Z,102146.58
2019-05-30T22:41:32.528Z,102141.87
2019-05-30T22:44:01.554Z,102142.70
2019-05-30T22:46:30.585Z,102141.38
2019-05-30T22:48:59.714Z,102141.38
2019-05-30T22:51:28.742Z,102135.83
2019-05-30T22:53:57.771Z,102139.56
2019-05-30T22:56:26.975Z,102132.02
2019-05-30T22:58:56.063Z,102136.59
2019-05-30T23:01:25.231Z,102140.78
2019-05-30T23:03:54.370Z,102140.09
2019-05-30T23:06:23.545Z,102138.11
2019-05-30T23:08:52.731Z,102138.48
2019-05-30T23:11:21.856Z,102142.67
2019-05-30T23:13:51.972Z,102132.98
2019-05-30T23:16:21.127Z,102127.39
2019-05-30T23:18:50.442Z,102130.84
2019-05-30T23:21:22.000Z,102130.84
2019-05-30T23:23:51.853Z,102139.71
2019-05-30T23:26:21.422Z,102135.03
2019-05-30T23:28:51.729Z,102140.02
2019-05-30T23:31:20.974Z,102140.02
2019-05-30T23:33:50.325Z,102142.18
2019-05-30T23:36:19.417Z,102146.20
2019-05-30T23:38:48.705Z,102141.77
2019-05-30T23:41:17.895Z,102141.95
2019-05-30T23:43:56.706Z,102139.28
2019-05-30T23:46:17.688Z,102144.34
2019-05-30T23:48:46.785Z,102139.89
2019-05-30T23:51:15.880Z,102133.78
2019-05-30T23:53:44.948Z,102138.63
2019-05-30T23:56:14.140Z,102134.95
2019-05-30T23:58:43.227Z,102132.84
